createdAt,value
2023-02-12T00:00:13.346Z,5.83
2023-02-12T00:02:39.880Z,3.27
2023-02-12T00:05:06.579Z,3.73
2023-02-12T00:07:33.020Z,6.73
2023-02-12T00:09:59.504Z,4.70
2023-02-12T00:12:26.054Z,2.07
2023-02-12T00:14:52.520Z,2.90
2023-02-12T00:17:19.171Z,3.73
2023-02-12T00:19:47.559Z,5.47
2023-02-12T00:22:14.078Z,4.53
2023-02-12T00:24:40.552Z,5.07
2023-02-12T00:27:07.032Z,5.07
2023-02-12T00:29:33.605Z,3.80
2023-02-12T00:32:00.162Z,3.40
2023-02-12T00:34:26.670Z,4.60
2023-02-12T00:36:53.126Z,3.03
2023-02-12T00:39:19.710Z,5.97
2023-02-12T00:41:46.228Z,3.33
2023-02-12T00:44:12.739Z,5.90
2023-02-12T00:46:39.520Z,2.53
2023-02-12T00:49:06.021Z,3.70
2023-02-12T00:51:32.454Z,2.67
2023-02-12T00:53:58.906Z,2.07
2023-02-12T00:56:25.392Z,6.63
2023-02-12T00:58:51.883Z,4.27
2023-02-12T01:01:18.794Z,2.30
2023-02-12T01:03:45.389Z,2.03
2023-02-12T01:06:11.909Z,2.23
2023-02-12T01:08:38.495Z,3.67
2023-02-12T01:11:05.793Z,1.53
2023-02-12T01:13:33.674Z,1.83
2023-02-12T01:16:06.869Z,1.93
2023-02-12T01:18:33.434Z,3.20
2023-02-12T01:21:00.027Z,3.80
2023-02-12T01:23:26.557Z,2.70
2023-02-12T01:25:53.478Z,1.57
2023-02-12T01:28:20.289Z,2.63
2023-02-12T01:30:47.310Z,2.03
2023-02-12T01:33:13.842Z,1.77
2023-02-12T01:35:40.307Z,2.77
2023-02-12T01:38:06.888Z,2.57
2023-02-12T01:40:33.401Z,2.20
2023-02-12T01:43:03.535Z,1.97
2023-02-12T01:45:48.330Z,2.17
2023-02-12T01:48:17.564Z,3.03
2023-02-12T01:50:45.664Z,3.27
2023-02-12T01:53:19.825Z,2.37
2023-02-12T01:55:48.798Z,3.13
2023-02-12T01:58:15.677Z,6.50
2023-02-12T02:00:42.230Z,2.50
2023-02-12T02:03:08.784Z,2.60
2023-02-12T02:05:43.067Z,2.27
2023-02-12T02:08:10.819Z,1.20
2023-02-12T02:10:37.258Z,2.60
2023-02-12T02:13:22.482Z,2.00
2023-02-12T02:15:51.743Z,2.50
2023-02-12T02:18:35.306Z,3.50
2023-02-12T02:21:27.312Z,1.73
2023-02-12T02:23:53.728Z,5.43
2023-02-12T02:26:41.355Z,1.93
2023-02-12T02:29:45.800Z,1.93
2023-02-12T02:32:21.894Z,2.50
2023-02-12T02:34:57.126Z,2.60
2023-02-12T02:37:46.122Z,2.53
2023-02-12T02:40:26.998Z,3.47
2023-02-12T02:43:00.836Z,3.13
2023-02-12T02:45:40.971Z,3.20
2023-02-12T02:48:14.493Z,1.53
2023-02-12T02:50:44.901Z,2.40
2023-02-12T02:53:20.091Z,2.13
2023-02-12T02:55:52.257Z,1.90
2023-02-12T02:58:27.212Z,3.67
2023-02-12T03:01:04.262Z,0.97
2023-02-12T03:03:34.609Z,3.23
2023-02-12T03:06:07.655Z,3.23
2023-02-12T03:08:37.947Z,9.07
2023-02-12T03:11:14.716Z,3.83
2023-02-12T03:13:51.170Z,1.80
2023-02-12T03:16:23.852Z,2.80
2023-02-12T03:19:02.968Z,2.57
2023-02-12T03:21:34.244Z,1.27
2023-02-12T03:24:26.799Z,3.00
2023-02-12T03:27:03.539Z,2.70
2023-02-12T03:29:30.190Z,1.23
2023-02-12T03:32:08.709Z,3.00
2023-02-12T03:34:49.383Z,2.47
2023-02-12T03:37:38.747Z,3.37
2023-02-12T03:40:17.738Z,2.90
2023-02-12T03:43:00.736Z,2.13
2023-02-12T03:45:33.143Z,1.27
2023-02-12T03:48:02.653Z,1.47
2023-02-12T03:50:32.088Z,3.93
2023-02-12T03:52:58.620Z,4.03
2023-02-12T03:55:25.315Z,2.30
2023-02-12T03:57:59.443Z,3.23
2023-02-12T04:00:26.145Z,1.70
2023-02-12T04:02:53.909Z,2.77
2023-02-12T04:05:28.162Z,4.13
2023-02-12T04:07:56.373Z,1.63
2023-02-12T04:10:30.415Z,1.27
2023-02-12T04:13:33.519Z,2.73
2023-02-12T04:16:16.276Z,1.77
2023-02-12T04:18:45.139Z,1.83
2023-02-12T04:21:23.379Z,3.63
2023-02-12T04:24:11.025Z,1.63
2023-02-12T04:26:44.425Z,2.30
2023-02-12T04:29:33.333Z,1.87
2023-02-12T04:32:12.815Z,1.30
2023-02-12T04:34:54.479Z,3.17
2023-02-12T04:37:26.677Z,2.17
2023-02-12T04:39:53.551Z,1.80
2023-02-12T04:42:20.515Z,2.97
2023-02-12T04:44:47.003Z,3.00
2023-02-12T04:47:15.226Z,4.50
2023-02-12T04:49:41.870Z,1.63
2023-02-12T04:52:08.868Z,4.10
2023-02-12T04:54:35.777Z,1.83
2023-02-12T04:57:03.315Z,2.10
2023-02-12T04:59:29.754Z,3.40
2023-02-12T05:01:58.896Z,2.67
2023-02-12T05:04:25.374Z,2.70
2023-02-12T05:06:51.921Z,4.17
2023-02-12T05:09:20.063Z,2.63
2023-02-12T05:11:46.909Z,3.07
2023-02-12T05:14:13.399Z,2.37
2023-02-12T05:16:39.990Z,2.63
2023-02-12T05:19:06.432Z,4.73
2023-02-12T05:21:32.917Z,3.33
2023-02-12T05:24:01.506Z,4.47
2023-02-12T05:26:28.017Z,5.50
2023-02-12T05:28:54.478Z,3.07
2023-02-12T05:31:22.194Z,3.27
2023-02-12T05:33:49.833Z,3.87
2023-02-12T05:36:21.293Z,4.67
2023-02-12T05:38:48.696Z,3.33
2023-02-12T05:41:23.619Z,4.23
2023-02-12T05:43:50.923Z,4.37
2023-02-12T05:46:18.764Z,5.53
2023-02-12T05:48:45.272Z,2.43
2023-02-12T05:51:16.916Z,2.27
2023-02-12T05:53:43.646Z,2.00
2023-02-12T05:56:11.701Z,2.43
2023-02-12T05:58:38.615Z,3.57
2023-02-12T06:01:10.549Z,3.53
2023-02-12T06:03:37.056Z,5.07
2023-02-12T06:06:03.801Z,2.23
2023-02-12T06:08:30.364Z,5.67
2023-02-12T06:11:08.976Z,3.53
2023-02-12T06:13:35.488Z,3.83
2023-02-12T06:16:02.605Z,2.47
2023-02-12T06:18:29.488Z,4.63
2023-02-12T06:20:57.083Z,2.00
2023-02-12T06:23:25.155Z,5.43
2023-02-12T06:25:56.680Z,4.20
2023-02-12T06:28:23.725Z,6.73
2023-02-12T06:30:50.627Z,4.67
2023-02-12T06:33:17.395Z,4.43
2023-02-12T06:35:43.958Z,2.27
2023-02-12T06:38:10.723Z,3.83
2023-02-12T06:40:37.264Z,2.97
2023-02-12T06:43:03.857Z,2.17
2023-02-12T06:45:30.509Z,5.17
2023-02-12T06:48:00.714Z,1.70
2023-02-12T06:50:27.250Z,2.00
2023-02-12T06:52:53.745Z,2.47
2023-02-12T06:55:20.335Z,3.50
2023-02-12T06:57:46.850Z,6.33
2023-02-12T07:00:13.930Z,3.53
2023-02-12T07:02:40.551Z,7.70
2023-02-12T07:05:07.124Z,4.47
2023-02-12T07:07:33.668Z,4.80
2023-02-12T07:10:00.294Z,4.40
2023-02-12T07:12:26.798Z,5.40
2023-02-12T07:14:53.302Z,3.00
2023-02-12T07:17:19.905Z,3.07
2023-02-12T07:19:46.422Z,2.93
2023-02-12T07:22:12.966Z,1.33
2023-02-12T07:24:39.505Z,4.97
2023-02-12T07:27:05.991Z,2.57
2023-02-12T07:29:32.713Z,5.33
2023-02-12T07:31:59.389Z,3.63
2023-02-12T07:34:25.941Z,7.53
2023-02-12T07:36:52.480Z,5.93
2023-02-12T07:39:19.044Z,5.47
2023-02-12T07:41:45.559Z,5.17
2023-02-12T07:44:12.805Z,4.03
2023-02-12T07:46:49.119Z,5.97
2023-02-12T07:49:18.275Z,3.53
2023-02-12T07:51:45.032Z,4.47
2023-02-12T07:54:12.524Z,4.57
2023-02-12T07:56:41.143Z,4.07
2023-02-12T07:59:11.185Z,3.43
2023-02-12T08:01:43.365Z,3.47
2023-02-12T08:04:14.149Z,2.97
2023-02-12T08:06:42.963Z,5.63
2023-02-12T08:09:11.662Z,5.23
2023-02-12T08:11:39.275Z,3.87
2023-02-12T08:14:05.990Z,4.67
2023-02-12T08:16:36.678Z,4.03
2023-02-12T08:19:16.603Z,4.30
2023-02-12T08:21:44.558Z,5.40
2023-02-12T08:24:11.998Z,10.03
2023-02-12T08:26:39.660Z,7.23
2023-02-12T08:29:08.312Z,3.93
2023-02-12T08:31:38.078Z,4.37
2023-02-12T08:34:05.499Z,2.70
2023-02-12T08:36:41.202Z,3.77
2023-02-12T08:39:08.217Z,3.97
2023-02-12T08:41:35.169Z,9.53
2023-02-12T08:44:03.557Z,3.90
2023-02-12T08:46:33.184Z,5.23
2023-02-12T08:49:02.368Z,5.90
2023-02-12T08:51:31.964Z,3.37
2023-02-12T08:54:00.655Z,4.17
2023-02-12T08:56:30.001Z,3.47
2023-02-12T08:59:00.190Z,2.00
2023-02-12T09:01:28.749Z,6.23
2023-02-12T09:03:55.970Z,5.50
2023-02-12T09:06:24.297Z,4.83
2023-02-12T09:08:51.968Z,4.77
2023-02-12T09:11:30.618Z,4.93
2023-02-12T09:13:59.942Z,2.73
2023-02-12T09:16:30.360Z,5.07
2023-02-12T09:18:58.262Z,3.97
2023-02-12T09:21:25.192Z,7.93
2023-02-12T09:23:53.097Z,7.07
2023-02-12T09:26:22.481Z,5.43
2023-02-12T09:28:50.052Z,5.43
2023-02-12T09:31:21.003Z,4.07
2023-02-12T09:33:51.208Z,5.30
2023-02-12T09:36:19.139Z,6.80
2023-02-12T09:38:45.828Z,3.97
2023-02-12T09:41:29.423Z,4.67
2023-02-12T09:44:14.876Z,8.47
2023-02-12T09:46:48.029Z,3.43
2023-02-12T09:49:33.690Z,4.53
2023-02-12T09:52:00.741Z,5.80
2023-02-12T09:54:34.611Z,4.20
2023-02-12T09:57:02.184Z,4.37
2023-02-12T09:59:41.906Z,3.93
2023-02-12T10:02:15.984Z,3.53
2023-02-12T10:04:58.721Z,6.00
2023-02-12T10:08:04.527Z,3.10
2023-02-12T10:10:44.266Z,3.97
2023-02-12T10:13:16.564Z,4.23
2023-02-12T10:16:10.579Z,5.03
2023-02-12T10:18:53.320Z,4.47
2023-02-12T10:21:50.986Z,4.20
2023-02-12T10:24:27.180Z,3.47
2023-02-12T10:26:57.965Z,5.33
2023-02-12T10:29:27.590Z,7.20
2023-02-12T10:32:00.855Z,4.13
2023-02-12T10:34:36.180Z,4.77
2023-02-12T10:37:29.911Z,7.07
2023-02-12T10:40:30.018Z,7.57
2023-02-12T10:42:57.965Z,9.47
2023-02-12T10:45:27.539Z,5.13
2023-02-12T10:48:13.705Z,6.37
2023-02-12T10:51:07.729Z,6.37
2023-02-12T10:53:36.807Z,9.83
2023-02-12T10:56:17.362Z,9.40
2023-02-12T10:58:50.423Z,6.30
2023-02-12T11:01:30.844Z,6.23
2023-02-12T11:04:00.025Z,5.70
2023-02-12T11:06:28.996Z,8.43
2023-02-12T11:08:57.060Z,10.37
2023-02-12T11:11:26.270Z,7.77
2023-02-12T11:14:00.672Z,5.93
2023-02-12T11:16:40.611Z,10.60
2023-02-12T11:19:09.092Z,5.20
2023-02-12T11:21:36.363Z,7.80
2023-02-12T11:24:21.640Z,5.83
2023-02-12T11:26:48.364Z,7.53
2023-02-12T11:29:33.779Z,8.37
2023-02-12T11:32:05.614Z,9.33
2023-02-12T11:34:32.315Z,32.60
2023-02-12T11:36:59.132Z,7.13
2023-02-12T11:39:39.176Z,10.03
2023-02-12T11:42:14.832Z,9.83
2023-02-12T11:44:44.129Z,7.67
2023-02-12T11:47:22.331Z,14.50
2023-02-12T11:49:52.127Z,6.93
2023-02-12T11:52:23.630Z,10.53
2023-02-12T11:54:52.260Z,10.57
2023-02-12T11:57:37.220Z,8.63
2023-02-12T12:00:12.829Z,8.63
2023-02-12T12:02:44.986Z,5.20
2023-02-12T12:05:20.152Z,9.40
2023-02-12T12:08:08.031Z,10.27
2023-02-12T12:10:56.195Z,7.33
2023-02-12T12:13:30.576Z,10.47
2023-02-12T12:16:27.444Z,8.37
2023-02-12T12:19:24.291Z,5.83
2023-02-12T12:22:06.117Z,5.00
2023-02-12T12:24:35.693Z,10.30
2023-02-12T12:27:45.491Z,10.00
2023-02-12T12:30:36.996Z,9.47
2023-02-12T12:33:14.438Z,7.63
2023-02-12T12:36:13.403Z,8.90
2023-02-12T12:39:08.373Z,11.93
2023-02-12T12:42:12.635Z,13.83
2023-02-12T12:45:26.788Z,11.87
2023-02-12T12:48:18.144Z,9.60
2023-02-12T12:50:52.039Z,10.10
2023-02-12T12:53:31.964Z,12.80
2023-02-12T12:56:19.964Z,10.13
2023-02-12T12:59:10.389Z,10.10
2023-02-12T13:02:01.590Z,7.23
2023-02-12T13:04:46.071Z,8.93
2023-02-12T13:07:33.546Z,9.80
2023-02-12T13:10:41.031Z,10.20
2023-02-12T13:13:19.668Z,11.90
2023-02-12T13:15:51.122Z,10.93
2023-02-12T13:18:23.820Z,10.70
2023-02-12T13:21:05.428Z,12.00
2023-02-12T13:23:31.926Z,11.87
2023-02-12T13:26:04.236Z,12.93
2023-02-12T13:28:44.821Z,8.03
2023-02-12T13:34:05.378Z,9.97
2023-02-12T13:36:33.338Z,9.57
2023-02-12T13:39:18.110Z,13.13
2023-02-12T13:41:52.701Z,9.40
2023-02-12T13:44:51.755Z,7.97
2023-02-12T13:47:39.451Z,11.83
2023-02-12T13:50:18.396Z,17.03
2023-02-12T13:52:52.827Z,18.20
2023-02-12T13:55:39.744Z,23.10
2023-02-12T13:58:40.087Z,19.37
2023-02-12T14:01:10.313Z,19.47
2023-02-12T14:03:37.745Z,15.53
2023-02-12T14:06:15.949Z,13.50
2023-02-12T14:08:51.688Z,12.37
2023-02-12T14:11:20.801Z,11.93
2023-02-12T14:14:03.118Z,13.90
2023-02-12T14:16:29.578Z,12.70
2023-02-12T14:19:33.667Z,15.10
2023-02-12T14:22:11.185Z,15.17
2023-02-12T14:24:37.832Z,12.23
2023-02-12T14:27:20.875Z,14.63
2023-02-12T14:30:09.163Z,8.63
2023-02-12T14:32:45.262Z,13.20
2023-02-12T14:35:41.811Z,12.27
2023-02-12T14:38:20.386Z,12.30
2023-02-12T14:40:48.446Z,9.80
2023-02-12T14:43:26.785Z,13.93
2023-02-12T14:45:55.256Z,14.57
2023-02-12T14:49:04.941Z,17.23
2023-02-12T14:51:51.300Z,15.30
2023-02-12T14:54:30.838Z,15.03
2023-02-12T14:57:05.892Z,17.67
2023-02-12T14:59:36.470Z,20.43
2023-02-12T15:02:04.230Z,14.20
2023-02-12T15:04:34.829Z,18.63
2023-02-12T15:07:08.327Z,24.90
2023-02-12T15:09:40.153Z,20.80
2023-02-12T15:12:16.687Z,22.07
2023-02-12T15:14:47.039Z,19.43
2023-02-12T15:17:22.553Z,22.37
2023-02-12T15:20:08.515Z,22.67
2023-02-12T15:22:38.119Z,23.90
2023-02-12T15:25:26.024Z,21.73
2023-02-12T15:28:04.717Z,24.40
2023-02-12T15:30:36.395Z,23.50
2023-02-12T15:33:05.627Z,21.80
2023-02-12T15:35:34.382Z,28.03
2023-02-12T15:38:01.889Z,27.40
2023-02-12T15:40:30.353Z,37.80
2023-02-12T15:42:59.960Z,47.13
2023-02-12T15:45:28.622Z,44.07
2023-02-12T15:48:01.083Z,42.87
2023-02-12T15:50:28.709Z,31.37
2023-02-12T15:52:57.257Z,29.80
2023-02-12T15:55:27.367Z,27.23
2023-02-12T15:57:59.996Z,29.83
2023-02-12T16:00:40.637Z,22.13
2023-02-12T16:03:21.293Z,24.23
2023-02-12T16:05:49.690Z,27.57
2023-02-12T16:08:17.653Z,28.30
2023-02-12T16:10:49.401Z,26.30
2023-02-12T16:13:24.782Z,23.80
2023-02-12T16:16:13.027Z,29.20
2023-02-12T16:18:40.888Z,28.97
2023-02-12T16:21:20.990Z,29.63
2023-02-12T16:23:50.741Z,29.73
2023-02-12T16:26:24.358Z,31.70
2023-02-12T16:28:54.094Z,41.00
2023-02-12T16:31:22.206Z,38.17
2023-02-12T16:33:53.376Z,40.77
2023-02-12T16:36:19.895Z,52.87
2023-02-12T16:38:48.623Z,59.83
2023-02-12T16:41:26.984Z,73.00
2023-02-12T16:43:59.564Z,77.27
2023-02-12T16:46:27.532Z,40.20
2023-02-12T16:48:57.047Z,36.83
2023-02-12T16:51:24.545Z,38.50
2023-02-12T16:53:54.108Z,37.53
2023-02-12T16:56:22.326Z,45.13
2023-02-12T16:58:57.036Z,79.27
2023-02-12T17:01:27.457Z,40.97
2023-02-12T17:03:54.921Z,34.73
2023-02-12T17:06:23.365Z,51.93
2023-02-12T17:08:50.056Z,94.80
2023-02-12T17:11:17.893Z,79.87
2023-02-12T17:13:46.453Z,74.53
2023-02-12T17:16:18.888Z,70.03
2023-02-12T17:18:55.357Z,69.80
2023-02-12T17:21:31.280Z,51.67
2023-02-12T17:23:58.106Z,51.50
2023-02-12T17:26:25.107Z,50.37
2023-02-12T17:28:51.717Z,51.07
2023-02-12T17:31:19.587Z,49.87
2023-02-12T17:33:46.586Z,50.07
2023-02-12T17:36:13.215Z,42.30
2023-02-12T17:38:39.795Z,44.97
2023-02-12T17:41:12.410Z,43.83
2023-02-12T17:43:38.961Z,39.90
2023-02-12T17:46:12.937Z,40.43
2023-02-12T17:48:40.658Z,38.43
2023-02-12T17:51:09.683Z,46.33
2023-02-12T17:53:36.169Z,37.80
2023-02-12T17:56:02.877Z,53.27
2023-02-12T17:58:29.589Z,47.30
2023-02-12T18:00:57.258Z,47.13
2023-02-12T18:03:23.995Z,43.27
2023-02-12T18:05:50.857Z,40.93
2023-02-12T18:08:17.420Z,40.27
2023-02-12T18:10:45.008Z,34.03
2023-02-12T18:13:13.761Z,36.97
2023-02-12T18:15:40.833Z,40.37
2023-02-12T18:18:07.423Z,41.47
2023-02-12T18:20:34.180Z,33.93
2023-02-12T18:23:00.976Z,34.97
2023-02-12T18:25:27.604Z,40.83
2023-02-12T18:27:54.200Z,44.40
2023-02-12T18:30:20.907Z,34.63
2023-02-12T18:32:47.572Z,36.87
2023-02-12T18:35:14.848Z,36.60
2023-02-12T18:37:43.247Z,34.50
2023-02-12T18:40:10.449Z,35.40
2023-02-12T18:42:36.916Z,47.53
2023-02-12T18:45:03.916Z,40.37
2023-02-12T18:47:30.367Z,37.70
2023-02-12T18:49:58.138Z,41.13
2023-02-12T18:52:24.972Z,42.17
2023-02-12T18:54:53.085Z,40.63
2023-02-12T18:57:19.884Z,45.83
2023-02-12T18:59:46.415Z,45.77
2023-02-12T19:02:13.951Z,46.13
2023-02-12T19:04:40.646Z,38.63
2023-02-12T19:07:07.167Z,40.53
2023-02-12T19:09:33.683Z,38.60
2023-02-12T19:12:00.300Z,43.77
2023-02-12T19:14:27.210Z,47.63
2023-02-12T19:16:53.939Z,45.00
2023-02-12T19:19:21.193Z,53.87
2023-02-12T19:21:47.742Z,68.40
2023-02-12T19:24:16.041Z,61.10
2023-02-12T19:26:44.332Z,54.13
2023-02-12T19:29:12.080Z,56.53
2023-02-12T19:31:41.111Z,58.10
2023-02-12T19:34:33.849Z,54.27
2023-02-12T19:37:00.383Z,56.57
2023-02-12T19:39:27.486Z,62.47
2023-02-12T19:41:56.506Z,68.93
2023-02-12T19:44:24.471Z,69.33
2023-02-12T19:46:51.769Z,57.87
2023-02-12T19:49:23.387Z,53.90
2023-02-12T19:51:50.424Z,50.07
2023-02-12T19:54:18.586Z,50.03
2023-02-12T19:56:45.518Z,52.00
2023-02-12T19:59:14.010Z,42.60
2023-02-12T20:01:41.150Z,48.73
2023-02-12T20:04:08.021Z,53.47
2023-02-12T20:06:36.370Z,54.50
2023-02-12T20:09:04.125Z,53.27
2023-02-12T20:11:32.209Z,52.90
2023-02-12T20:13:59.165Z,48.37
2023-02-12T20:16:31.191Z,47.33
2023-02-12T20:19:09.666Z,50.73
2023-02-12T20:21:36.285Z,52.47
2023-02-12T20:24:02.933Z,51.17
2023-02-12T20:26:31.277Z,50.80
2023-02-12T20:28:58.788Z,50.47
2023-02-12T20:31:28.097Z,52.93
2023-02-12T20:33:57.338Z,56.53
2023-02-12T20:36:25.146Z,47.27
2023-02-12T20:38:58.834Z,54.00
2023-02-12T20:41:26.611Z,40.40
2023-02-12T20:43:53.639Z,49.50
2023-02-12T20:46:21.902Z,48.53
2023-02-12T20:48:48.958Z,46.20
2023-02-12T20:51:17.989Z,48.13
2023-02-12T20:53:45.218Z,51.23
2023-02-12T20:56:14.587Z,52.60
2023-02-12T20:58:44.936Z,52.73
2023-02-12T21:01:23.959Z,49.53
2023-02-12T21:03:52.612Z,50.63
2023-02-12T21:06:20.444Z,50.67
2023-02-12T21:08:47.129Z,53.57
2023-02-12T21:11:20.667Z,50.40
2023-02-12T21:13:59.037Z,53.20
2023-02-12T21:16:32.907Z,55.50
2023-02-12T21:19:00.086Z,58.67
2023-02-12T21:21:29.703Z,62.57
2023-02-12T21:23:58.668Z,56.47
2023-02-12T21:26:28.159Z,61.50
2023-02-12T21:28:57.468Z,59.00
2023-02-12T21:31:28.147Z,66.60
2023-02-12T21:33:56.208Z,63.53
2023-02-12T21:36:34.223Z,54.87
2023-02-12T21:39:01.159Z,69.90
2023-02-12T21:41:34.488Z,80.30
2023-02-12T21:44:10.955Z,81.57
2023-02-12T21:46:37.811Z,80.27
2023-02-12T21:49:04.982Z,82.90
2023-02-12T21:51:37.124Z,86.33
2023-02-12T21:54:12.673Z,102.13
2023-02-12T21:56:40.955Z,78.33
2023-02-12T21:59:08.670Z,93.97
2023-02-12T22:01:41.735Z,99.77
2023-02-12T22:04:08.715Z,91.03
2023-02-12T22:06:46.422Z,95.07
2023-02-12T22:09:14.888Z,104.57
2023-02-12T22:11:41.740Z,93.83
2023-02-12T22:14:11.706Z,85.70
2023-02-12T22:16:38.341Z,89.47
2023-02-12T22:19:05.464Z,103.13
2023-02-12T22:21:37.364Z,94.20
2023-02-12T22:24:06.390Z,98.43
2023-02-12T22:26:33.450Z,115.63
2023-02-12T22:29:05.656Z,114.63
2023-02-12T22:31:34.473Z,111.13
2023-02-12T22:34:04.531Z,113.70
2023-02-12T22:36:31.775Z,122.67
2023-02-12T22:38:59.929Z,100.80
2023-02-12T22:41:27.808Z,107.30
2023-02-12T22:43:55.290Z,109.17
2023-02-12T22:46:22.093Z,114.27
2023-02-12T22:48:48.559Z,118.50
2023-02-12T22:51:26.275Z,113.60
2023-02-12T22:53:53.815Z,120.20
2023-02-12T22:56:20.522Z,137.30
2023-02-12T22:58:47.859Z,119.97
2023-02-12T23:01:16.341Z,126.30
2023-02-12T23:03:42.893Z,117.70
2023-02-12T23:06:14.461Z,126.90
2023-02-12T23:08:41.003Z,108.77
2023-02-12T23:11:08.644Z,110.10
2023-02-12T23:13:36.163Z,128.87
2023-02-12T23:16:03.584Z,127.43
2023-02-12T23:18:30.031Z,99.07
2023-02-12T23:20:57.830Z,104.47
2023-02-12T23:23:24.746Z,107.67
2023-02-12T23:25:51.586Z,111.70
2023-02-12T23:28:18.172Z,106.60
2023-02-12T23:30:44.743Z,118.90
2023-02-12T23:33:11.623Z,107.63
2023-02-12T23:35:38.312Z,108.00
2023-02-12T23:38:05.403Z,112.33
2023-02-12T23:40:33.341Z,118.47
2023-02-12T23:43:00.248Z,96.90
2023-02-12T23:45:27.517Z,99.77
2023-02-12T23:47:54.481Z,101.47
2023-02-12T23:50:21.346Z,98.50
2023-02-12T23:52:47.812Z,105.43
2023-02-12T23:55:14.460Z,103.10
2023-02-12T23:57:40.979Z,103.07
